Time;durP1;ratioP1;P1;durP2;ratioP2;P2;SDS_P1;SDS_P2;PMS_P1;PMS_P2;Temp;Humidity;BMP_temperature;BMP_pressure;BME280_temperature;BME280_humidity;BME280_pressure;Samples;Min_cycle;Max_cycle;Signal;HPM_P1;HPM_P2
2022/09/18 00:02:03;;;;;;;8.60;2.42;;;;;;;18.79;52.06;98357.13;5171105;27;20029;-68
2022/09/18 00:04:29;;;;;;;7.10;2.17;;;;;;;18.82;51.99;98357.53;5172032;27;20232;-63
2022/09/18 00:06:55;;;;;;;10.07;2.30;;;;;;;18.85;51.95;98361.66;5172328;27;20042;-66
2022/09/18 00:09:21;;;;;;;3.85;2.22;;;;;;;18.87;51.72;98360.44;5169799;27;20038;-66
2022/09/18 00:11:48;;;;;;;3.53;2.15;;;;;;;18.91;52.00;98366.22;5171430;27;20030;-66
2022/09/18 00:14:17;;;;;;;7.30;3.15;;;;;;;18.94;52.21;98363.16;5171558;27;20027;-67
2022/09/18 00:16:43;;;;;;;3.58;2.15;;;;;;;18.95;52.59;98345.22;5171463;27;20053;-67
2022/09/18 00:19:09;;;;;;;2.67;2.13;;;;;;;18.96;52.25;98342.34;5162287;27;20027;-70
2022/09/18 00:21:36;;;;;;;4.07;1.88;;;;;;;18.98;52.34;98342.94;5158025;27;20131;-71
2022/09/18 00:24:03;;;;;;;5.45;1.90;;;;;;;19.00;52.35;98340.06;5172015;27;20038;-67
2022/09/18 00:26:29;;;;;;;3.15;1.90;;;;;;;19.01;52.24;98342.53;5170223;27;20339;-68
2022/09/18 00:28:57;;;;;;;4.63;1.92;;;;;;;19.02;52.13;98335.34;5172076;27;20078;-66
2022/09/18 00:31:28;;;;;;;3.53;2.00;;;;;;;19.05;52.25;98334.91;5171839;27;20244;-69
2022/09/18 00:33:54;;;;;;;3.35;2.00;;;;;;;19.07;52.13;98340.88;5171787;27;20026;-68
2022/09/18 00:36:21;;;;;;;3.30;1.83;;;;;;;19.08;52.09;98342.53;5171786;27;20090;-68
2022/09/18 00:38:48;;;;;;;6.88;2.33;;;;;;;19.09;51.94;98338.84;5163684;27;20053;-65
2022/09/18 00:41:15;;;;;;;3.20;1.73;;;;;;;19.10;51.81;98331.63;5169343;27;20023;-65
2022/09/18 00:43:40;;;;;;;4.25;1.90;;;;;;;19.11;51.66;98338.66;5171435;27;20036;-66
2022/09/18 00:46:18;;;;;;;4.25;2.15;;;;;;;19.13;51.68;98340.06;5171497;27;20031;-67
2022/09/18 00:49:01;;;;;;;5.82;2.00;;;;;;;19.14;51.91;98336.38;5171540;27;20031;-68
2022/09/18 00:51:29;;;;;;;3.65;2.00;;;;;;;19.15;51.88;98338.03;5171531;27;20025;-64
2022/09/18 00:54:07;;;;;;;3.65;1.90;;;;;;;19.16;51.86;98331.63;5171183;27;20038;-62
2022/09/18 00:56:33;;;;;;;3.40;1.98;;;;;;;19.17;51.75;98333.28;5171410;27;20034;-64
2022/09/18 00:58:59;;;;;;;4.35;1.85;;;;;;;19.16;51.67;98334.31;5170820;27;20041;-63
2022/09/18 01:01:25;;;;;;;3.55;1.90;;;;;;;19.16;51.48;98342.34;5167997;27;20058;-68
2022/09/18 01:03:50;;;;;;;3.60;1.67;;;;;;;19.17;51.63;98338.66;5171107;27;20216;-64
2022/09/18 01:06:29;;;;;;;2.60;1.65;;;;;;;19.18;51.20;98342.13;5171109;27;20107;-65
2022/09/18 01:09:34;;;;;;;3.58;1.65;;;;;;;19.18;51.33;98347.50;5171154;27;20231;-64
2022/09/18 01:12:25;;;;;;;4.15;1.80;;;;;;;19.20;51.39;98348.13;5127326;27;20087;-63
2022/09/18 01:14:53;;;;;;;3.13;1.80;;;;;;;19.18;51.24;98334.09;5169327;27;20050;-65
2022/09/18 01:18:02;;;;;;;3.47;1.75;;;;;;;19.19;51.14;98339.22;5170638;27;20022;-63
2022/09/18 01:20:35;;;;;;;5.88;1.77;;;;;;;19.20;51.09;98351.63;5087579;28;20024;-63
2022/09/18 01:23:25;;;;;;;3.47;1.90;;;;;;;19.24;51.17;98348.53;5162530;27;20136;-63
2022/09/18 01:26:27;;;;;;;4.63;1.55;;;;;;;19.24;51.41;98348.53;5170640;27;20026;-63
2022/09/18 01:29:10;;;;;;;3.90;1.67;;;;;;;19.25;51.19;98356.38;5165858;27;20043;-64
2022/09/18 01:32:03;;;;;;;2.10;1.50;;;;;;;19.25;51.06;98350.19;5170019;27;20023;-64
2022/09/18 01:34:39;;;;;;;4.88;1.65;;;;;;;19.27;51.14;98350.81;5170885;27;20102;-65
2022/09/18 01:37:24;;;;;;;4.72;1.65;;;;;;;19.27;51.23;98356.16;5170600;27;20045;-65
2022/09/18 01:39:57;;;;;;;3.55;1.92;;;;;;;19.27;51.10;98356.97;5153816;27;20058;-66
2022/09/18 01:42:25;;;;;;;4.68;1.45;;;;;;;19.28;51.04;98363.19;5170339;27;20039;-64
2022/09/18 01:44:55;;;;;;;3.58;1.70;;;;;;;19.30;51.16;98358.44;5170555;27;20148;-65
2022/09/18 01:47:27;;;;;;;3.10;1.65;;;;;;;19.30;51.02;98361.94;5170303;27;20030;-65
2022/09/18 01:49:58;;;;;;;3.38;2.13;;;;;;;19.30;50.91;98355.75;5170454;27;20039;-64
2022/09/18 01:52:32;;;;;;;2.00;1.50;;;;;;;19.31;51.05;98358.22;5170196;27;20034;-64
2022/09/18 01:55:02;;;;;;;2.10;1.55;;;;;;;19.31;51.06;98365.47;5168531;27;20086;-64
2022/09/18 01:57:38;;;;;;;5.72;2.58;;;;;;;19.31;51.07;98363.59;5148867;27;20039;-65
2022/09/18 02:00:11;;;;;;;8.38;2.10;;;;;;;19.32;50.84;98361.75;5149645;27;20051;-63
2022/09/18 02:02:45;;;;;;;5.80;1.90;;;;;;;19.33;50.76;98366.88;5131297;27;20132;-64
2022/09/18 02:05:20;;;;;;;2.25;1.40;;;;;;;19.33;50.77;98372.25;5149372;27;20037;-64
2022/09/18 02:08:09;;;;;;;6.40;2.55;;;;;;;19.31;50.60;98365.47;5149195;27;20132;-65
2022/09/18 02:10:39;;;;;;;3.72;1.65;;;;;;;19.29;50.59;98368.31;5140849;27;20031;-65
2022/09/18 02:13:07;;;;;;;3.05;1.90;;;;;;;19.28;50.66;98369.34;5149104;27;20269;-63
2022/09/18 02:15:37;;;;;;;2.92;1.42;;;;;;;19.27;50.53;98365.03;5149061;27;20053;-63
2022/09/18 02:18:07;;;;;;;2.27;1.50;;;;;;;19.25;50.46;98360.91;5149057;27;20244;-65
2022/09/18 02:20:35;;;;;;;3.50;1.70;;;;;;;19.24;50.46;98368.13;5149238;27;20273;-63
2022/09/18 02:23:06;;;;;;;2.88;1.70;;;;;;;19.23;50.46;98366.50;5148820;27;20170;-63
2022/09/18 02:25:41;;;;;;;2.40;1.50;;;;;;;19.20;50.53;98356.97;5148905;27;20039;-63
2022/09/18 02:28:09;;;;;;;1.95;1.60;;;;;;;19.19;50.47;98349.97;5151652;27;20525;-64
2022/09/18 02:30:38;;;;;;;2.88;1.70;;;;;;;19.18;50.39;98361.75;5149097;27;20035;-65
2022/09/18 02:33:07;;;;;;;2.63;1.83;;;;;;;19.16;50.30;98363.81;5148767;27;20244;-64
2022/09/18 02:35:44;;;;;;;1.95;1.40;;;;;;;19.16;50.64;98362.97;5148514;27;20035;-64
2022/09/18 02:38:20;;;;;;;2.47;1.70;;;;;;;19.15;50.48;98378.25;5148542;27;20034;-65
2022/09/18 02:41:10;;;;;;;6.85;1.70;;;;;;;19.14;50.34;98375.75;5148656;27;20038;-64
2022/09/18 02:43:56;;;;;;;4.32;1.73;;;;;;;19.11;50.43;98378.84;5163365;27;20065;-64
2022/09/18 02:46:27;;;;;;;4.18;1.80;;;;;;;19.10;50.41;98379.88;5169311;27;20244;-63
2022/09/18 02:49:21;;;;;;;2.47;1.70;;;;;;;19.10;50.56;98391.41;5168407;27;20050;-64
2022/09/18 02:51:53;;;;;;;3.70;1.73;;;;;;;19.06;50.51;98391.00;5168571;27;20089;-63
2022/09/18 02:54:25;;;;;;;2.17;1.50;;;;;;;19.06;50.50;98393.69;5169156;27;20235;-63
2022/09/18 02:57:31;;;;;;;3.17;1.88;;;;;;;19.02;50.58;98389.75;5169029;27;20243;-62
2022/09/18 02:59:59;;;;;;;2.78;1.40;;;;;;;19.02;50.73;98388.94;5127597;27;20268;-63
2022/09/18 03:02:25;;;;;;;2.88;1.58;;;;;;;19.01;50.52;98388.09;5169032;27;20033;-65
2022/09/18 03:04:50;;;;;;;2.78;1.35;;;;;;;19.00;50.64;98385.66;5169066;27;20042;-64
2022/09/18 03:07:16;;;;;;;2.72;2.00;;;;;;;19.00;50.55;98385.66;5168929;27;20075;-65
2022/09/18 03:09:42;;;;;;;2.00;1.67;;;;;;;18.99;50.82;98384.00;5168102;27;20073;-64
2022/09/18 03:12:08;;;;;;;3.35;1.83;;;;;;;18.98;50.53;98387.69;5168914;27;20031;-64
2022/09/18 03:14:34;;;;;;;2.70;1.42;;;;;;;18.97;50.61;98392.22;5168792;27;20037;-64
2022/09/18 03:17:00;;;;;;;2.47;1.83;;;;;;;18.99;50.60;98386.66;5168623;27;20030;-64
2022/09/18 03:19:25;;;;;;;2.95;1.50;;;;;;;18.97;50.48;98386.03;5167076;27;20034;-64
2022/09/18 03:21:51;;;;;;;2.10;1.60;;;;;;;18.96;50.73;98377.19;5168800;27;20183;-64
2022/09/18 03:24:18;;;;;;;2.83;1.90;;;;;;;18.96;50.69;98379.88;5168624;27;20228;-65
2022/09/18 03:26:44;;;;;;;3.20;1.42;;;;;;;18.96;50.63;98390.59;5168661;27;20113;-64
2022/09/18 03:29:10;;;;;;;1.80;1.52;;;;;;;18.97;50.54;98388.72;5166853;27;20061;-64
2022/09/18 03:31:36;;;;;;;2.20;1.40;;;;;;;18.97;50.71;98391.41;5168670;27;20098;-64
2022/09/18 03:34:02;;;;;;;2.63;1.70;;;;;;;18.96;50.55;98384.41;5167124;27;20030;-64
2022/09/18 03:36:28;;;;;;;4.57;1.75;;;;;;;18.96;50.49;98384.41;5168224;27;20101;-64
2022/09/18 03:38:53;;;;;;;4.32;1.60;;;;;;;18.95;50.48;98382.75;5155317;27;20027;-64
2022/09/18 03:41:18;;;;;;;2.97;1.92;;;;;;;18.96;50.46;98384.41;5147864;28;20038;-64
2022/09/18 03:43:44;;;;;;;3.00;1.48;;;;;;;18.96;50.57;98389.75;5155917;27;20053;-65
2022/09/18 03:46:09;;;;;;;2.60;1.85;;;;;;;18.97;50.52;98391.41;5168551;27;20296;-63
2022/09/18 03:48:35;;;;;;;2.63;1.70;;;;;;;18.96;50.39;98389.75;5168474;27;20150;-64
2022/09/18 03:51:00;;;;;;;5.10;2.25;;;;;;;18.96;50.26;98384.41;5167929;27;20047;-64
2022/09/18 03:53:25;;;;;;;4.22;2.22;;;;;;;18.96;50.22;98384.41;5167977;27;20043;-64
2022/09/18 03:55:51;;;;;;;2.60;2.17;;;;;;;18.97;50.02;98378.81;5168402;27;20041;-65
2022/09/18 03:58:17;;;;;;;4.07;2.00;;;;;;;18.95;49.94;98378.22;5168358;27;20039;-63
2022/09/18 04:00:43;;;;;;;3.85;1.70;;;;;;;18.97;50.07;98372.66;5167629;27;20168;-64
2022/09/18 04:03:09;;;;;;;3.92;1.80;;;;;;;18.98;50.08;98371.63;5168091;27;20032;-64
2022/09/18 04:05:35;;;;;;;3.75;2.03;;;;;;;18.97;50.06;98368.09;5168183;27;20037;-65
2022/09/18 04:08:01;;;;;;;2.92;2.00;;;;;;;18.98;50.28;98366.25;5167556;27;20042;-64
2022/09/18 04:10:26;;;;;;;2.53;1.90;;;;;;;18.97;49.99;98364.59;5168153;27;20046;-65
2022/09/18 04:12:52;;;;;;;2.47;1.55;;;;;;;18.98;49.95;98376.97;5168496;27;20031;-66
2022/09/18 04:15:18;;;;;;;3.92;1.85;;;;;;;19.00;49.99;98377.59;5166547;27;20039;-64
2022/09/18 04:17:44;;;;;;;6.72;2.45;;;;;;;18.99;49.98;98370.59;5168214;27;20083;-65
2022/09/18 04:20:10;;;;;;;2.75;1.88;;;;;;;19.00;49.92;98370.38;5167643;27;20030;-65
2022/09/18 04:22:36;;;;;;;2.80;1.95;;;;;;;19.00;49.92;98378.41;5171274;27;20266;-63
2022/09/18 04:25:02;;;;;;;5.03;2.40;;;;;;;19.02;49.69;98383.59;5169417;27;20041;-66
2022/09/18 04:27:27;;;;;;;2.10;1.80;;;;;;;19.02;49.91;98387.09;5171669;27;20247;-64
2022/09/18 04:29:53;;;;;;;3.33;1.73;;;;;;;19.02;49.76;98383.59;5171508;27;20031;-65
2022/09/18 04:32:18;;;;;;;2.63;2.10;;;;;;;19.02;49.69;98379.03;5171904;27;20121;-65
2022/09/18 04:34:44;;;;;;;2.00;1.70;;;;;;;19.04;49.83;98376.16;5170135;27;20148;-65
2022/09/18 04:37:10;;;;;;;5.25;3.47;;;;;;;19.05;49.76;98377.78;5171845;27;20235;-65
2022/09/18 04:39:35;;;;;;;2.17;1.63;;;;;;;19.05;49.78;98384.00;5152472;27;20026;-64
2022/09/18 04:42:01;;;;;;;3.67;2.00;;;;;;;19.07;49.88;98370.38;5150899;27;20019;-65
2022/09/18 04:44:27;;;;;;;3.30;1.92;;;;;;;19.11;49.55;98376.19;5165977;27;20082;-64
2022/09/18 04:46:52;;;;;;;3.20;1.75;;;;;;;19.11;49.50;98371.63;5171729;27;20091;-63
2022/09/18 04:49:18;;;;;;;3.85;2.25;;;;;;;19.14;49.53;98378.44;5171187;27;20031;-64
2022/09/18 04:51:43;;;;;;;2.65;1.88;;;;;;;19.15;49.35;98375.56;5171461;27;20033;-64
2022/09/18 04:54:09;;;;;;;3.50;1.98;;;;;;;19.18;49.14;98371.63;5171026;27;20030;-65
2022/09/18 04:56:35;;;;;;;2.67;1.65;;;;;;;19.19;49.24;98376.78;5171418;27;20034;-64
2022/09/18 04:59:00;;;;;;;4.95;2.08;;;;;;;19.23;49.14;98368.31;5171348;27;20037;-65
2022/09/18 05:01:26;;;;;;;3.13;2.10;;;;;;;19.23;49.23;98368.31;5171456;27;20093;-63
2022/09/18 05:03:52;;;;;;;3.17;2.00;;;;;;;19.27;49.07;98382.97;5170959;27;20030;-64
2022/09/18 05:06:17;;;;;;;2.00;1.58;;;;;;;19.30;48.99;98379.91;5171370;27;20150;-64
2022/09/18 05:08:43;;;;;;;2.75;2.22;;;;;;;19.33;48.99;98368.75;5171220;27;20023;-63
2022/09/18 05:11:08;;;;;;;5.68;2.50;;;;;;;19.39;48.91;98372.47;5171262;27;20018;-64
2022/09/18 05:13:34;;;;;;;4.30;2.88;;;;;;;19.47;48.79;98361.50;5171065;27;20027;-64
2022/09/18 05:15:59;;;;;;;3.67;2.10;;;;;;;19.54;48.59;98361.50;5170522;27;20042;-64
2022/09/18 05:18:25;;;;;;;5.30;2.05;;;;;;;19.63;48.83;98363.78;5169948;27;20019;-63
2022/09/18 05:20:50;;;;;;;3.58;2.30;;;;;;;19.69;48.76;98370.16;5170631;27;20185;-63
2022/09/18 05:23:16;;;;;;;2.72;1.83;;;;;;;19.78;48.91;98360.03;5170928;27;20031;-64
2022/09/18 05:25:42;;;;;;;3.25;2.00;;;;;;;19.83;48.71;98357.56;5170960;27;20038;-64
2022/09/18 05:28:10;;;;;;;3.08;2.00;;;;;;;19.90;48.84;98362.94;5170323;27;20026;-65
2022/09/18 05:30:36;;;;;;;2.97;1.80;;;;;;;19.95;49.10;98361.25;5170242;27;20204;-65
2022/09/18 05:33:04;;;;;;;2.28;1.60;;;;;;;20.00;49.37;98349.88;5169193;27;20054;-63
2022/09/18 05:35:31;;;;;;;2.85;1.90;;;;;;;20.05;49.50;98354.63;5170692;27;20034;-65
2022/09/18 05:37:56;;;;;;;3.00;1.83;;;;;;;20.07;49.42;98342.63;5170482;27;20033;-64
2022/09/18 05:40:29;;;;;;;3.45;2.15;;;;;;;20.09;49.63;98347.78;5169585;27;20102;-64
2022/09/18 05:42:55;;;;;;;3.13;1.83;;;;;;;20.13;49.69;98346.34;5170503;27;20027;-64
2022/09/18 05:45:21;;;;;;;3.13;1.88;;;;;;;20.12;49.72;98345.50;5170544;27;20034;-64
2022/09/18 05:48:12;;;;;;;6.15;1.98;;;;;;;20.16;49.79;98339.72;5170353;27;20042;-65
2022/09/18 05:50:39;;;;;;;5.07;2.08;;;;;;;20.18;49.94;98332.28;5166519;27;20030;-63
2022/09/18 05:53:07;;;;;;;3.08;2.05;;;;;;;20.19;49.77;98328.56;5170223;27;20244;-65
2022/09/18 05:55:33;;;;;;;6.72;2.65;;;;;;;20.18;49.96;98337.66;5170259;27;20052;-64
2022/09/18 05:58:00;;;;;;;4.07;2.25;;;;;;;20.19;50.01;98341.97;5169399;27;20224;-65
2022/09/18 06:00:27;;;;;;;3.67;2.08;;;;;;;20.17;50.17;98342.16;5169221;27;20038;-64
2022/09/18 06:02:54;;;;;;;4.35;2.70;;;;;;;20.16;50.36;98345.09;5169392;27;20152;-64
2022/09/18 06:05:21;;;;;;;4.57;2.70;;;;;;;20.13;50.33;98344.47;5170145;27;20031;-64
2022/09/18 06:07:46;;;;;;;5.32;3.38;;;;;;;20.09;50.39;98345.91;5170010;27;20035;-63
2022/09/18 06:10:12;;;;;;;6.10;4.03;;;;;;;20.08;50.47;98344.28;5169451;27;20061;-63
2022/09/18 06:12:37;;;;;;;3.40;3.08;;;;;;;20.08;50.44;98344.28;5169508;27;20054;-65
2022/09/18 06:15:05;;;;;;;5.53;3.40;;;;;;;20.12;50.22;98342.00;5169911;27;20050;-65
2022/09/18 06:17:31;;;;;;;5.40;3.63;;;;;;;20.13;50.40;98346.34;5169164;27;20069;-64
2022/09/18 06:19:56;;;;;;;5.22;3.00;;;;;;;20.16;50.21;98342.41;5169868;27;20019;-63
2022/09/18 06:22:22;;;;;;;6.88;3.38;;;;;;;20.16;50.25;98342.41;5169652;27;20058;-65
2022/09/18 06:24:47;;;;;;;4.72;3.45;;;;;;;20.13;50.27;98336.41;5168000;27;20090;-63
2022/09/18 06:27:13;;;;;;;4.28;3.60;;;;;;;20.12;50.38;98339.31;5169654;27;20027;-63
2022/09/18 06:29:38;;;;;;;6.15;4.13;;;;;;;20.11;50.34;98343.84;5169687;27;20022;-65
2022/09/18 06:32:04;;;;;;;8.65;4.85;;;;;;;20.11;50.52;98345.72;5169680;27;20050;-64
2022/09/18 06:34:29;;;;;;;6.10;3.70;;;;;;;20.10;50.54;98344.06;5168633;27;20174;-64
2022/09/18 06:36:54;;;;;;;6.00;3.78;;;;;;;20.08;50.58;98341.59;5169360;27;20227;-65
2022/09/18 06:39:20;;;;;;;8.25;4.30;;;;;;;20.10;50.54;98336.03;5152311;27;20267;-64
2022/09/18 06:41:46;;;;;;;5.90;3.70;;;;;;;20.10;50.41;98341.38;5148575;27;20264;-65
2022/09/18 06:44:11;;;;;;;4.13;3.58;;;;;;;20.11;50.39;98345.72;5157004;27;20083;-64
2022/09/18 06:46:36;;;;;;;6.50;4.00;;;;;;;20.12;50.49;98342.00;5169361;27;20137;-64
2022/09/18 06:49:02;;;;;;;6.47;4.05;;;;;;;20.12;50.51;98336.63;5168051;27;20039;-64
2022/09/18 06:51:28;;;;;;;5.00;3.97;;;;;;;20.12;50.46;98342.00;5168532;27;20168;-63
2022/09/18 06:53:53;;;;;;;6.80;4.15;;;;;;;20.12;50.48;98337.44;5168908;27;20066;-66
2022/09/18 06:56:19;;;;;;;5.32;3.58;;;;;;;20.12;50.60;98342.00;5169089;27;20045;-65
2022/09/18 06:58:44;;;;;;;6.25;3.90;;;;;;;20.12;50.67;98340.13;5168402;27;20176;-64
2022/09/18 07:01:10;;;;;;;5.93;4.18;;;;;;;20.15;50.49;98343.44;5169381;27;20023;-65
2022/09/18 07:03:35;;;;;;;5.50;4.13;;;;;;;20.12;50.50;98345.50;5168969;27;20046;-64
2022/09/18 07:06:01;;;;;;;5.15;3.65;;;;;;;20.16;50.52;98345.91;5168902;27;20093;-65
2022/09/18 07:08:26;;;;;;;6.35;4.18;;;;;;;20.14;50.23;98337.25;5168359;27;20027;-66
2022/09/18 07:10:52;;;;;;;4.35;3.30;;;;;;;20.15;50.41;98343.44;5168877;27;20034;-64
2022/09/18 07:13:17;;;;;;;5.70;3.63;;;;;;;20.15;50.23;98335.38;5168739;27;20027;-65
2022/09/18 07:15:46;;;;;;;4.32;3.20;;;;;;;20.15;50.31;98338.88;5168758;27;20099;-65
2022/09/18 07:18:12;;;;;;;3.72;3.10;;;;;;;20.13;50.53;98338.28;5168375;27;20153;-64
2022/09/18 07:20:37;;;;;;;4.82;2.97;;;;;;;20.12;50.42;98332.06;5167956;27;20099;-64
2022/09/18 07:23:03;;;;;;;4.70;2.47;;;;;;;20.12;50.58;98325.91;5167862;27;20034;-64
2022/09/18 07:25:30;;;;;;;3.78;2.65;;;;;;;20.11;50.35;98321.56;5168642;27;20079;-64
2022/09/18 07:28:02;;;;;;;4.43;2.67;;;;;;;20.12;50.35;98323.22;5167869;27;20162;-64
2022/09/18 07:30:27;;;;;;;4.00;2.60;;;;;;;20.12;50.42;98324.03;5168610;27;20023;-65
2022/09/18 07:32:53;;;;;;;4.10;2.42;;;;;;;20.13;50.41;98324.88;5168409;27;20059;-64
2022/09/18 07:35:18;;;;;;;4.15;3.22;;;;;;;20.15;50.41;98316.59;5168405;27;20350;-66
2022/09/18 07:37:44;;;;;;;4.90;2.97;;;;;;;20.15;49.96;98316.59;5168072;27;20259;-64
2022/09/18 07:40:11;;;;;;;3.47;2.85;;;;;;;20.18;49.96;98308.91;5168110;27;20300;-66
2022/09/18 07:42:36;;;;;;;4.13;3.03;;;;;;;20.20;49.72;98297.97;5167950;27;20101;-64
2022/09/18 07:45:02;;;;;;;4.63;2.92;;;;;;;20.23;49.57;98295.69;5167381;27;20121;-63
2022/09/18 07:47:28;;;;;;;5.55;3.08;;;;;;;20.26;49.61;98291.72;5150223;27;20105;-65
2022/09/18 07:49:54;;;;;;;4.70;2.83;;;;;;;20.28;49.24;98297.72;5168428;27;20066;-63
2022/09/18 07:52:20;;;;;;;3.92;2.75;;;;;;;20.32;49.06;98295.41;5168223;27;20043;-65
2022/09/18 07:54:45;;;;;;;5.50;2.97;;;;;;;20.36;48.86;98288.59;5167894;27;20089;-62
2022/09/18 07:57:11;;;;;;;8.38;4.65;;;;;;;20.37;48.78;98280.28;5171586;27;20030;-62
2022/09/18 07:59:36;;;;;;;2.92;2.13;;;;;;;20.36;49.02;98270.63;5172488;27;20037;-64
2022/09/18 08:02:03;;;;;;;4.32;2.22;;;;;;;20.36;49.10;98267.09;5172537;27;20035;-63
2022/09/18 08:04:29;;;;;;;5.75;3.13;;;;;;;20.38;48.83;98265.81;5172338;27;20038;-64
2022/09/18 08:06:56;;;;;;;6.78;2.88;;;;;;;20.40;48.87;98261.06;5171215;27;20093;-63
2022/09/18 08:09:22;;;;;;;5.13;2.65;;;;;;;20.43;48.74;98259.84;5172288;27;20171;-61
2022/09/18 08:11:51;;;;;;;2.92;2.63;;;;;;;20.44;48.57;98253.38;5172167;27;20034;-63
2022/09/18 08:14:16;;;;;;;3.22;2.45;;;;;;;20.45;48.74;98243.47;5172296;27;20029;-62
2022/09/18 08:16:42;;;;;;;6.32;2.35;;;;;;;20.46;48.83;98237.06;5170999;27;20129;-63
2022/09/18 08:19:08;;;;;;;3.33;2.28;;;;;;;20.47;48.78;98238.72;5170830;27;20250;-64
2022/09/18 08:21:33;;;;;;;3.72;2.40;;;;;;;20.48;48.78;98226.94;5171870;27;20050;-63
2022/09/18 08:23:58;;;;;;;2.65;2.13;;;;;;;20.51;48.60;98231.88;5171809;27;20127;-63
2022/09/18 08:26:24;;;;;;;4.28;2.72;;;;;;;20.52;48.54;98222.75;5171971;27;20131;-63
2022/09/18 08:28:49;;;;;;;4.55;2.63;;;;;;;20.54;48.47;98216.13;5171208;27;20037;-63
2022/09/18 08:31:15;;;;;;;7.55;2.65;;;;;;;20.55;48.59;98211.56;5171741;27;20246;-63
2022/09/18 08:33:40;;;;;;;3.30;2.30;;;;;;;20.56;48.44;98205.16;5171851;27;20027;-63
2022/09/18 08:36:06;;;;;;;3.03;2.10;;;;;;;20.57;48.51;98201.44;5171678;27;20042;-62
2022/09/18 08:38:33;;;;;;;6.50;2.47;;;;;;;20.58;48.49;98206.59;5170807;27;20053;-65
2022/09/18 08:41:23;;;;;;;5.00;2.33;;;;;;;20.60;48.38;98198.31;5171182;27;20030;-64
2022/09/18 08:43:59;;;;;;;4.05;2.72;;;;;;;20.62;48.41;98209.69;5170879;27;20102;-65
2022/09/18 08:46:28;;;;;;;8.60;3.53;;;;;;;20.68;48.24;98207.97;5171471;27;20053;-73
2022/09/18 08:49:35;;;;;;;3.97;3.00;;;;;;;20.77;48.07;98203.97;5171376;27;20051;-70
2022/09/18 08:52:03;;;;;;;7.95;3.03;;;;;;;20.84;47.74;98203.94;5171225;27;20039;-72
2022/09/18 08:54:56;;;;;;;9.38;3.97;;;;;;;20.89;47.57;98207.59;5170874;27;20022;-71
2022/09/18 08:57:36;;;;;;;6.90;3.47;;;;;;;20.93;47.41;98199.94;5171335;27;20066;-73
2022/09/18 09:00:11;;;;;;;5.15;3.70;;;;;;;20.95;47.32;98200.53;5170030;27;20042;-71
2022/09/18 09:02:40;;;;;;;3.72;3.13;;;;;;;20.97;47.53;98190.34;5171202;27;20089;-72
2022/09/18 09:05:10;;;;;;;3.35;2.40;;;;;;;20.98;47.42;98186.63;5171470;27;20222;-72
2022/09/18 09:07:47;;;;;;;4.43;3.10;;;;;;;21.00;47.43;98184.53;5169782;27;20022;-74
2022/09/18 09:10:53;;;;;;;8.00;2.95;;;;;;;21.00;47.37;98184.53;5170768;27;20110;-72
2022/09/18 09:13:27;;;;;;;4.65;3.50;;;;;;;21.00;47.31;98183.72;5170734;27;20124;-73
2022/09/18 09:16:05;;;;;;;5.78;4.38;;;;;;;21.00;47.00;98172.97;5159615;27;20050;-73
2022/09/18 09:19:08;;;;;;;4.85;3.58;;;;;;;21.00;47.03;98179.16;5150202;27;20019;-72
2022/09/18 09:21:54;;;;;;;5.75;3.22;;;;;;;20.98;47.27;98175.88;5126910;27;20039;-73
2022/09/18 09:24:27;;;;;;;5.55;3.10;;;;;;;20.98;47.32;98175.06;5149946;27;20197;-72
2022/09/18 09:26:55;;;;;;;6.85;3.53;;;;;;;20.98;47.28;98175.06;5169469;27;20031;-70
2022/09/18 09:29:29;;;;;;;8.13;3.95;;;;;;;20.96;47.39;98167.19;5170611;27;20019;-68
2022/09/18 09:31:59;;;;;;;6.68;4.20;;;;;;;20.95;47.17;98162.91;5170262;27;20053;-72
2022/09/18 09:34:53;;;;;;;6.90;4.40;;;;;;;20.94;47.41;98163.94;5170502;27;20035;-72
2022/09/18 09:37:27;;;;;;;6.65;5.05;;;;;;;20.92;47.23;98163.34;5169998;27;20031;-76
2022/09/18 09:39:58;;;;;;;5.72;3.70;;;;;;;20.93;47.38;98156.06;5169023;27;20110;-72
2022/09/18 09:42:30;;;;;;;3.88;3.47;;;;;;;20.90;47.35;98162.72;5170390;27;20035;-71
2022/09/18 09:45:24;;;;;;;4.90;3.33;;;;;;;20.87;47.36;98155.94;5169667;27;20126;-70
2022/09/18 09:48:11;;;;;;;5.82;4.00;;;;;;;20.87;47.47;98157.78;5167899;27;20042;-70
2022/09/18 09:50:36;;;;;;;4.70;3.30;;;;;;;20.85;47.61;98154.50;5170391;27;20023;-69
2022/09/18 09:53:07;;;;;;;4.70;3.30;;;;;;;20.84;47.52;98147.47;5170113;27;20163;-73
2022/09/18 09:55:47;;;;;;;4.10;3.33;;;;;;;20.81;47.69;98147.91;5169685;27;20147;-73
2022/09/18 09:58:22;;;;;;;4.90;3.30;;;;;;;20.79;47.78;98142.75;5169319;27;20262;-73
2022/09/18 10:01:08;;;;;;;5.00;3.05;;;;;;;20.77;48.03;98142.16;5170193;27;20037;-71
2022/09/18 10:03:50;;;;;;;4.15;3.25;;;;;;;20.75;48.05;98144.25;5168762;27;20026;-72
2022/09/18 10:06:30;;;;;;;3.80;2.90;;;;;;;20.72;48.14;98145.50;5168713;27;20030;-75
2022/09/18 10:09:04;;;;;;;5.03;3.15;;;;;;;20.71;48.16;98141.16;5169871;27;20054;-70
2022/09/18 10:11:34;;;;;;;3.97;3.13;;;;;;;20.72;48.14;98144.69;5169894;27;20248;-72
2022/09/18 10:14:05;;;;;;;3.70;3.10;;;;;;;20.71;48.23;98135.78;5169781;27;20032;-71
2022/09/18 10:16:37;;;;;;;6.03;3.47;;;;;;;20.70;48.24;98128.75;5168483;27;20029;-75
2022/09/18 10:19:03;;;;;;;6.13;3.08;;;;;;;20.68;48.16;98132.72;5168595;27;20027;-71
2022/09/18 10:21:33;;;;;;;5.82;3.47;;;;;;;20.67;48.26;98120.31;5169854;27;20031;-73
2022/09/18 10:24:56;;;;;;;4.82;3.05;;;;;;;20.65;48.46;98117.03;5169448;27;20216;-71
2022/09/18 10:27:22;;;;;;;3.85;2.85;;;;;;;20.61;48.66;98113.97;5106435;28;20172;-71
2022/09/18 10:29:47;;;;;;;4.55;3.22;;;;;;;20.61;48.62;98108.59;5106519;28;20032;-72
2022/09/18 10:32:31;;;;;;;5.82;3.13;;;;;;;20.62;48.83;98101.34;5132714;27;20074;-71
2022/09/18 10:34:57;;;;;;;5.40;3.63;;;;;;;20.60;48.84;98104.25;5168004;27;20034;-71
2022/09/18 10:37:28;;;;;;;5.50;2.97;;;;;;;20.62;48.88;98109.41;5169295;27;20038;-71
2022/09/18 10:40:00;;;;;;;7.38;3.53;;;;;;;20.61;48.87;98097.84;5169340;27;20033;-70
2022/09/18 10:42:26;;;;;;;;;;;;;;;20.53;48.84;98100.81;5169724;27;20042;-70
2022/09/18 10:44:55;;;;;;;4.90;3.53;;;;;;;20.54;49.05;98089.00;5169081;27;20012;-69
2022/09/18 10:47:26;;;;;;;7.18;3.50;;;;;;;20.55;48.76;98091.50;5168810;27;20194;-70
2022/09/18 10:49:56;;;;;;;6.97;3.67;;;;;;;20.58;48.98;98095.59;5168101;27;20065;-69
2022/09/18 10:52:34;;;;;;;5.28;3.90;;;;;;;20.58;49.03;98090.22;5168655;27;20062;-70
2022/09/18 10:55:06;;;;;;;5.97;3.45;;;;;;;20.57;49.02;98084.03;5164550;27;20049;-71
2022/09/18 10:57:33;;;;;;;6.35;3.80;;;;;;;20.57;49.16;98084.03;5167912;27;20030;-71
2022/09/18 11:00:00;;;;;;;10.07;3.88;;;;;;;20.59;49.41;98081.13;5167992;27;20038;-71
2022/09/18 11:02:36;;;;;;;8.77;4.15;;;;;;;20.59;49.31;98076.56;5167973;27;20026;-69
2022/09/18 11:05:02;;;;;;;12.50;4.85;;;;;;;20.59;49.48;98071.19;5168140;27;20042;-72
2022/09/18 11:07:28;;;;;;;10.77;3.88;;;;;;;20.59;49.50;98063.13;5167830;27;20031;-71
2022/09/18 11:09:54;;;;;;;7.85;4.10;;;;;;;20.61;49.40;98054.84;5168445;27;20066;-65
2022/09/18 11:12:28;;;;;;;9.02;4.57;;;;;;;20.63;49.40;98054.63;5167313;27;20031;-67
2022/09/18 11:15:09;;;;;;;8.90;4.95;;;;;;;20.65;49.27;98053.38;5166035;27;20125;-70
2022/09/18 11:17:46;;;;;;;11.13;5.10;;;;;;;20.64;49.25;98051.72;5168221;27;20027;-68
2022/09/18 11:20:22;;;;;;;7.50;4.93;;;;;;;20.65;48.98;98053.38;5166558;27;20232;-69
2022/09/18 11:22:48;;;;;;;9.80;4.80;;;;;;;20.65;49.21;98053.38;5166701;27;20099;-68
2022/09/18 11:25:13;;;;;;;6.10;4.45;;;;;;;20.64;49.25;98040.97;5167627;27;20231;-67
2022/09/18 11:27:58;;;;;;;10.95;6.45;;;;;;;20.65;49.41;98033.72;5168717;27;20235;-68
2022/09/18 11:30:27;;;;;;;10.57;5.28;;;;;;;20.64;49.42;98032.06;5167051;27;20283;-68
2022/09/18 11:33:01;;;;;;;11.52;6.07;;;;;;;20.63;49.53;98020.53;5163128;27;20042;-68
2022/09/18 11:35:29;;;;;;;8.43;4.68;;;;;;;20.63;49.49;98017.84;5164039;27;20151;-68
2022/09/18 11:38:05;;;;;;;10.23;5.22;;;;;;;20.64;49.66;98007.91;5164976;27;20022;-64
2022/09/18 11:40:50;;;;;;;10.48;5.20;;;;;;;20.64;49.80;98003.34;5167019;27;20031;-69
2022/09/18 11:43:33;;;;;;;15.88;5.60;;;;;;;20.63;50.28;97988.28;5165468;27;20035;-70
2022/09/18 11:46:21;;;;;;;9.38;4.75;;;;;;;20.64;50.08;97991.78;5166435;27;20222;-66
2022/09/18 11:49:18;;;;;;;12.95;4.78;;;;;;;20.66;50.60;97990.50;5153992;27;20099;-66
2022/09/18 11:51:46;;;;;;;13.80;4.57;;;;;;;20.67;50.80;97989.44;5137922;27;20058;-66